createdAt,value
2023-05-17T00:00:27.262Z,101546.63
2023-05-17T00:02:55.109Z,101548.28
2023-05-17T00:05:23.510Z,101548.28
2023-05-17T00:07:51.590Z,101539.28
2023-05-17T00:10:19.572Z,101543.34
2023-05-17T00:12:48.016Z,101537.84
2023-05-17T00:15:15.851Z,101547.63
2023-05-17T00:17:45.075Z,101542.97
2023-05-17T00:20:14.351Z,101544.97
2023-05-17T00:22:43.291Z,101543.72
2023-05-17T00:25:11.122Z,101537.59
2023-05-17T00:27:39.581Z,101543.91
2023-05-17T00:30:09.628Z,101546.56
2023-05-17T00:32:37.511Z,101539.41
2023-05-17T00:35:08.171Z,101543.91
2023-05-17T00:37:36.043Z,101545.94
2023-05-17T00:40:04.305Z,101535.53
2023-05-17T00:42:32.464Z,101538.19
2023-05-17T00:45:00.292Z,101534.72
2023-05-17T00:47:28.244Z,101529.41
2023-05-17T00:49:56.653Z,101540.84
2023-05-17T00:52:25.925Z,101540.44
2023-05-17T00:54:54.010Z,101533.03
2023-05-17T00:57:22.519Z,101536.72
2023-05-17T00:59:50.685Z,101543.88
2023-05-17T01:02:18.981Z,101546.72
2023-05-17T01:07:40.384Z,101548.09
2023-05-17T01:10:09.780Z,101553.63
2023-05-17T01:12:48.509Z,101548.47
2023-05-17T01:15:23.295Z,101550.72
2023-05-17T01:18:00.491Z,101554.19
2023-05-17T01:20:30.617Z,101551.53
2023-05-17T01:23:16.293Z,101555.19
2023-05-17T01:25:54.115Z,101559.88
2023-05-17T01:28:26.364Z,101558.25
2023-05-17T01:30:57.091Z,101549.25
2023-05-17T01:33:25.527Z,101556.97
2023-05-17T01:35:54.025Z,101547.38
2023-05-17T01:38:21.915Z,101560.44
2023-05-17T01:41:00.246Z,101548.63
2023-05-17T01:43:36.806Z,101546.56
2023-05-17T01:46:14.552Z,101549.63
2023-05-17T01:48:48.951Z,101554.56
2023-05-17T01:51:21.489Z,101554.19
2023-05-17T01:53:52.882Z,101554.19
2023-05-17T01:56:23.555Z,101552.16
2023-05-17T01:58:53.999Z,101552.59
2023-05-17T02:01:24.478Z,101541.16
2023-05-17T02:03:52.400Z,101543.41
2023-05-17T02:06:20.232Z,101538.09
2023-05-17T02:08:48.892Z,101538.91
2023-05-17T02:11:16.742Z,101538.75
2023-05-17T02:13:44.555Z,101536.91
2023-05-17T02:16:14.181Z,101535.91
2023-05-17T02:18:41.840Z,101526.53
2023-05-17T02:21:09.736Z,101525.06
2023-05-17T02:23:38.589Z,101520.78
2023-05-17T02:26:06.445Z,101532.78
2023-05-17T02:28:34.296Z,101536.47
2023-05-17T02:31:02.693Z,101541.34
2023-05-17T02:33:31.995Z,101552.16
2023-05-17T02:35:59.865Z,101553.53
2023-05-17T02:38:28.246Z,101547.41
2023-05-17T02:40:56.076Z,101561.09
2023-05-17T02:43:24.189Z,101572.09
2023-05-17T02:45:52.522Z,101573.25
2023-05-17T02:48:20.424Z,101577.97
2023-05-17T02:50:49.631Z,101572.03
2023-05-17T02:53:17.892Z,101573.22
2023-05-17T02:55:45.725Z,101569.13
2023-05-17T02:58:13.535Z,101573.78
2023-05-17T03:00:41.902Z,101567.84
2023-05-17T03:03:09.798Z,101567.19
2023-05-17T03:05:37.695Z,101574.53
2023-05-17T03:08:08.534Z,101569.44
2023-05-17T03:10:36.435Z,101565.31
2023-05-17T03:13:04.253Z,101576.31
2023-05-17T03:15:32.701Z,101579.34
2023-05-17T03:18:00.693Z,101576.06
2023-05-17T03:20:28.774Z,101577.25
2023-05-17T03:22:57.034Z,101577.59
2023-05-17T03:25:26.263Z,101587.59
2023-05-17T03:27:54.155Z,101576.53
2023-05-17T03:30:22.692Z,101584.69
2023-05-17T03:32:50.687Z,101590.34
2023-05-17T03:35:18.557Z,101580.94
2023-05-17T03:37:46.893Z,101576.81
2023-05-17T03:40:14.846Z,101588.63
2023-05-17T03:42:44.045Z,101585.31
2023-05-17T03:45:13.460Z,101608.09
2023-05-17T03:47:43.139Z,101610.13
2023-05-17T03:50:11.140Z,101610.41
2023-05-17T03:52:39.688Z,101617.06
2023-05-17T03:55:07.815Z,101610.66
2023-05-17T03:57:35.654Z,101620.66
2023-05-17T04:00:09.274Z,101627.94
2023-05-17T04:02:37.217Z,101625.69
2023-05-17T04:05:05.617Z,101637.25
2023-05-17T04:07:34.098Z,101623.38
2023-05-17T04:10:02.960Z,101626.22
2023-05-17T04:12:30.798Z,101625.41
2023-05-17T04:14:59.116Z,101622.75
2023-05-17T04:17:29.811Z,101628.06
2023-05-17T04:19:57.795Z,101637.81
2023-05-17T04:22:26.135Z,101639.66
2023-05-17T04:24:53.944Z,101642.28
2023-05-17T04:27:22.648Z,101649.44
2023-05-17T04:29:50.533Z,101648.63
2023-05-17T04:32:18.959Z,101647.59
2023-05-17T04:34:48.157Z,101645.97
2023-05-17T04:37:16.674Z,101645.97
2023-05-17T04:39:44.484Z,101650.44
2023-05-17T04:42:12.530Z,101645.78
2023-05-17T04:44:40.958Z,101654.56
2023-05-17T04:47:09.221Z,101655.56
2023-05-17T04:49:37.346Z,101652.75
2023-05-17T04:52:07.739Z,101650.91
2023-05-17T04:54:35.601Z,101653.56
2023-05-17T04:57:05.035Z,101645.22
2023-05-17T04:59:33.242Z,101642.56
2023-05-17T05:02:01.090Z,101648.72
2023-05-17T05:04:28.927Z,101661.78
2023-05-17T05:06:57.271Z,101658.94
2023-05-17T05:09:26.458Z,101668.75
2023-05-17T05:11:54.381Z,101676.50
2023-05-17T05:14:22.302Z,101678.16
2023-05-17T05:16:50.130Z,101678.59
2023-05-17T05:19:18.034Z,101688.66
2023-05-17T05:21:46.590Z,101686.50
2023-05-17T05:24:14.497Z,101697.59
2023-05-17T05:26:44.776Z,101696.03
2023-05-17T05:29:12.813Z,101704.44
2023-05-17T05:31:40.656Z,101700.59
2023-05-17T05:34:08.740Z,101712.31
2023-05-17T05:36:36.659Z,101707.25
2023-05-17T05:39:04.888Z,101712.03
2023-05-17T05:41:33.069Z,101710.66
2023-05-17T05:44:02.361Z,101710.72
2023-05-17T05:46:30.183Z,101711.19
2023-05-17T05:48:58.164Z,101711.25
2023-05-17T05:51:26.089Z,101714.38
2023-05-17T05:53:53.879Z,101715.25
2023-05-17T05:56:21.648Z,101717.16
2023-05-17T05:58:49.736Z,101713.78
2023-05-17T06:01:18.918Z,101718.34
2023-05-17T06:03:46.771Z,101719.63
2023-05-17T06:06:16.827Z,101713.53
2023-05-17T06:08:45.738Z,101729.75
2023-05-17T06:11:13.535Z,101728.97
2023-05-17T06:13:41.501Z,101736.38
2023-05-17T06:16:09.304Z,101738.84
2023-05-17T06:18:38.557Z,101737.09
2023-05-17T06:21:06.557Z,101746.09
2023-05-17T06:23:34.456Z,101742.22
2023-05-17T06:26:02.527Z,101743.69
2023-05-17T06:28:30.497Z,101742.25
2023-05-17T06:30:58.512Z,101745.94
2023-05-17T06:33:26.453Z,101743.94
2023-05-17T06:35:57.788Z,101743.94
2023-05-17T06:38:27.681Z,101748.59
2023-05-17T06:40:57.495Z,101748.25
2023-05-17T06:43:25.652Z,101749.69
2023-05-17T06:45:53.726Z,101750.97
2023-05-17T06:48:21.974Z,101750.16
2023-05-17T06:50:49.946Z,101751.03
2023-05-17T06:53:19.375Z,101749.63
2023-05-17T06:55:47.226Z,101744.56
2023-05-17T06:58:15.084Z,101758.75
2023-05-17T07:00:43.207Z,101758.56
2023-05-17T07:03:11.548Z,101756.97
2023-05-17T07:05:39.565Z,101759.03
2023-05-17T07:08:07.433Z,101755.69
2023-05-17T07:10:36.740Z,101763.31
2023-05-17T07:13:04.569Z,101757.03
2023-05-17T07:15:32.551Z,101761.97
2023-05-17T07:18:00.756Z,101754.44
2023-05-17T07:20:28.809Z,101761.28
2023-05-17T07:22:57.152Z,101759.44
2023-05-17T07:25:25.186Z,101763.56
2023-05-17T07:27:54.746Z,101762.03
2023-05-17T07:30:25.396Z,101757.53
2023-05-17T07:32:55.251Z,101764.09
2023-05-17T07:35:23.479Z,101758.78
2023-05-17T07:37:51.419Z,101763.28
2023-05-17T07:40:19.555Z,101767.59
2023-05-17T07:42:47.420Z,101780.91
2023-05-17T07:45:16.961Z,101768.19
2023-05-17T07:47:44.927Z,101762.50
2023-05-17T07:50:13.481Z,101763.31
2023-05-17T07:52:41.332Z,101765.00
2023-05-17T07:55:10.148Z,101761.09
2023-05-17T07:57:38.049Z,101768.72
2023-05-17T08:00:11.427Z,101783.53
2023-05-17T08:02:41.252Z,101769.81
2023-05-17T08:05:09.880Z,101772.75
2023-05-17T08:07:37.761Z,101770.91
2023-05-17T08:10:08.776Z,101777.09
2023-05-17T08:12:36.670Z,101775.44
2023-05-17T08:15:04.873Z,101773.81
2023-05-17T08:17:32.829Z,101771.81
2023-05-17T08:20:02.114Z,101765.63
2023-05-17T08:22:30.010Z,101769.13
2023-05-17T08:24:58.067Z,101771.78
2023-05-17T08:27:27.078Z,101760.69
2023-05-17T08:29:57.692Z,101769.72
2023-05-17T08:32:26.128Z,101768.06
2023-05-17T08:34:54.619Z,101765.97
2023-05-17T08:37:24.467Z,101766.78
2023-05-17T08:39:52.499Z,101781.78
2023-05-17T08:42:25.588Z,101772.31
2023-05-17T08:44:54.893Z,101776.25
2023-05-17T08:47:29.969Z,101768.44
2023-05-17T08:50:00.430Z,101773.19
2023-05-17T08:52:32.787Z,101779.16
2023-05-17T08:55:06.066Z,101772.78
2023-05-17T08:57:36.444Z,101771.34
2023-05-17T09:00:12.864Z,101771.53
2023-05-17T09:02:41.216Z,101764.34
2023-05-17T09:05:11.074Z,101766.63
2023-05-17T09:07:40.793Z,101762.31
2023-05-17T09:10:09.051Z,101758.81
2023-05-17T09:12:37.221Z,101754.06
2023-05-17T09:15:27.239Z,101756.94
2023-05-17T09:17:55.746Z,101753.19
2023-05-17T09:20:25.295Z,101752.78
2023-05-17T09:22:54.533Z,101758.91
2023-05-17T09:25:24.812Z,101762.19
2023-05-17T09:27:53.769Z,101771.47
2023-05-17T09:30:28.793Z,101763.88
2023-05-17T09:32:57.783Z,101763.06
2023-05-17T09:35:30.337Z,101762.63
2023-05-17T09:38:07.200Z,101762.22
2023-05-17T09:40:35.410Z,101759.38
2023-05-17T09:43:03.292Z,101762.88
2023-05-17T09:45:33.020Z,101761.81
2023-05-17T09:48:11.911Z,101753.81
2023-05-17T09:50:45.455Z,101757.47
2023-05-17T09:53:31.760Z,101756.63
2023-05-17T09:56:01.531Z,101754.38
2023-05-17T09:58:33.009Z,101756.41
2023-05-17T10:01:03.703Z,101748.97
2023-05-17T10:03:33.489Z,101748.56
2023-05-17T10:06:03.865Z,101748.34
2023-05-17T10:08:33.932Z,101747.72
2023-05-17T10:11:06.675Z,101751.06
2023-05-17T10:13:38.775Z,101744.84
2023-05-17T10:16:07.307Z,101753.50
2023-05-17T10:18:35.993Z,101750.38
2023-05-17T10:21:04.808Z,101758.34
2023-05-17T10:23:34.669Z,101747.72
2023-05-17T10:26:03.297Z,101741.03
2023-05-17T10:28:32.217Z,101737.25
2023-05-17T10:31:00.921Z,101729.81
2023-05-17T10:33:29.148Z,101725.50
2023-05-17T10:35:57.609Z,101739.16
2023-05-17T10:38:31.945Z,101735.56
2023-05-17T10:41:05.482Z,101722.78
2023-05-17T10:43:34.956Z,101735.06
2023-05-17T10:46:04.461Z,101729.19
2023-05-17T10:48:32.216Z,101730.41
2023-05-17T10:51:07.863Z,101724.19
2023-05-17T10:53:55.884Z,101725.06
2023-05-17T10:56:25.544Z,101727.47
2023-05-17T10:59:08.909Z,101726.50
2023-05-17T11:02:00.037Z,101722.88
2023-05-17T11:04:33.836Z,101720.16
2023-05-17T11:07:32.159Z,101717.69
2023-05-17T11:10:12.591Z,101716.59
2023-05-17T11:12:44.634Z,101725.47
2023-05-17T11:15:15.323Z,101710.63
2023-05-17T11:17:51.607Z,101701.16
2023-05-17T11:20:36.838Z,101706.66
2023-05-17T11:23:06.870Z,101709.19
2023-05-17T11:25:36.349Z,101712.47
2023-05-17T11:28:20.012Z,101710.13
2023-05-17T11:30:51.860Z,101713.91
2023-05-17T11:33:32.412Z,101712.06
2023-05-17T11:36:06.531Z,101717.47
2023-05-17T11:38:34.695Z,101702.38
2023-05-17T11:43:52.301Z,101695.22
2023-05-17T11:46:21.731Z,101693.91
2023-05-17T11:48:51.949Z,101708.84
2023-05-17T11:51:23.819Z,101688.63
2023-05-17T11:53:55.661Z,101691.06
2023-05-17T11:56:35.521Z,101700.75
2023-05-17T11:59:12.185Z,101692.09
2023-05-17T12:01:44.400Z,101687.81
2023-05-17T12:04:12.317Z,101686.91
2023-05-17T12:06:40.808Z,101691.69
2023-05-17T12:09:11.097Z,101689.75
2023-05-17T12:11:39.557Z,101688.41
2023-05-17T12:14:07.812Z,101689.34
2023-05-17T12:16:38.003Z,101687.63
2023-05-17T12:19:06.049Z,101685.91
2023-05-17T12:21:34.747Z,101683.72
2023-05-17T12:24:02.709Z,101680.94
2023-05-17T12:26:30.473Z,101689.59
2023-05-17T12:28:59.768Z,101684.81
2023-05-17T12:31:30.971Z,101692.66
2023-05-17T12:34:02.429Z,101683.19
2023-05-17T12:36:31.880Z,101690.03
2023-05-17T12:38:59.915Z,101686.38
2023-05-17T12:41:28.458Z,101681.06
2023-05-17T12:44:06.338Z,101689.53
2023-05-17T12:46:42.256Z,101676.97
2023-05-17T12:49:12.335Z,101676.94
2023-05-17T12:51:44.221Z,101676.50
2023-05-17T12:54:13.075Z,101672.72
2023-05-17T12:56:44.083Z,101677.34
2023-05-17T12:59:14.086Z,101673.41
2023-05-17T13:01:44.242Z,101674.25
2023-05-17T13:04:14.333Z,101671.81
2023-05-17T13:06:46.954Z,101668.72
2023-05-17T13:09:15.758Z,101660.03
2023-05-17T13:11:43.625Z,101659.59
2023-05-17T13:14:12.626Z,101661.97
2023-05-17T13:16:41.467Z,101662.13
2023-05-17T13:19:16.888Z,101662.84
2023-05-17T13:21:45.080Z,101668.25
2023-05-17T13:24:12.934Z,101667.84
2023-05-17T13:26:40.750Z,101661.44
2023-05-17T13:29:08.875Z,101664.78
2023-05-17T13:31:36.699Z,101657.75
2023-05-17T13:34:04.630Z,101656.97
2023-05-17T13:36:34.022Z,101654.00
2023-05-17T13:39:02.354Z,101647.38
2023-05-17T13:41:30.368Z,101654.69
2023-05-17T13:43:58.559Z,101656.78
2023-05-17T13:46:26.419Z,101650.56
2023-05-17T13:48:54.488Z,101646.25
2023-05-17T13:51:22.498Z,101651.59
2023-05-17T13:53:51.773Z,101652.59
2023-05-17T13:56:19.674Z,101654.00
2023-05-17T13:58:48.189Z,101651.22
2023-05-17T14:01:16.139Z,101653.41
2023-05-17T14:03:44.006Z,101656.25
2023-05-17T14:06:12.097Z,101656.78
2023-05-17T14:08:40.510Z,101656.41
2023-05-17T14:11:09.736Z,101657.69
2023-05-17T14:13:37.670Z,101662.66
2023-05-17T14:16:06.195Z,101659.41
2023-05-17T14:18:34.140Z,101650.75
2023-05-17T14:21:03.626Z,101646.72
2023-05-17T14:23:31.464Z,101656.88
2023-05-17T14:25:59.284Z,101645.53
2023-05-17T14:28:28.702Z,101648.66
2023-05-17T14:30:56.523Z,101657.00
2023-05-17T14:33:24.477Z,101647.38
2023-05-17T14:35:52.439Z,101646.09
2023-05-17T14:38:22.339Z,101651.91
2023-05-17T14:40:50.228Z,101651.00
2023-05-17T14:43:19.617Z,101660.25
2023-05-17T14:45:48.899Z,101652.75
2023-05-17T14:48:16.816Z,101658.78
2023-05-17T14:50:44.896Z,101647.59
2023-05-17T14:53:13.127Z,101648.88
2023-05-17T14:55:41.872Z,101649.69
2023-05-17T14:58:11.697Z,101646.63
2023-05-17T15:00:41.591Z,101649.28
2023-05-17T15:03:10.951Z,101646.06
2023-05-17T15:05:39.018Z,101640.97
2023-05-17T15:08:07.186Z,101647.38
2023-05-17T15:10:35.320Z,101640.06
2023-05-17T15:13:03.186Z,101647.03
2023-05-17T15:15:31.349Z,101647.88
2023-05-17T15:18:00.389Z,101634.72
2023-05-17T15:20:30.151Z,101628.56
2023-05-17T15:22:58.049Z,101637.34
2023-05-17T15:25:25.885Z,101629.81
2023-05-17T15:27:53.699Z,101630.22
2023-05-17T15:30:27.005Z,101638.81
2023-05-17T15:32:54.973Z,101642.50
2023-05-17T15:35:23.135Z,101635.75
2023-05-17T15:37:53.645Z,101636.31
2023-05-17T15:40:22.534Z,101642.00
2023-05-17T15:42:52.177Z,101649.03
2023-05-17T15:45:21.561Z,101669.06
2023-05-17T15:47:50.246Z,101641.19
2023-05-17T15:50:18.253Z,101641.91
2023-05-17T15:52:47.347Z,101641.09
2023-05-17T15:55:17.018Z,101648.22
2023-05-17T15:57:44.634Z,101638.41
2023-05-17T16:00:13.589Z,101650.47
2023-05-17T16:02:41.485Z,101649.72
2023-05-17T16:05:10.182Z,101656.72
2023-05-17T16:07:38.196Z,101646.44
2023-05-17T16:10:06.795Z,101645.94
2023-05-17T16:12:36.721Z,101653.88
2023-05-17T16:15:04.844Z,101648.31
2023-05-17T16:17:32.719Z,101649.88
2023-05-17T16:20:01.019Z,101660.28
2023-05-17T16:22:29.071Z,101648.69
2023-05-17T16:24:57.068Z,101647.19
2023-05-17T16:27:24.946Z,101647.34
2023-05-17T16:29:54.149Z,101652.69
2023-05-17T16:32:22.377Z,101645.41
2023-05-17T16:34:50.215Z,101640.44
2023-05-17T16:37:18.146Z,101635.94
2023-05-17T16:39:45.971Z,101632.59
2023-05-17T16:42:15.076Z,101633.06
2023-05-17T16:44:42.924Z,101636.41
2023-05-17T16:47:12.538Z,101628.53
2023-05-17T16:49:41.174Z,101641.38
2023-05-17T16:52:09.265Z,101634.47
2023-05-17T16:54:38.651Z,101627.63
2023-05-17T16:57:08.500Z,101641.25
2023-05-17T16:59:36.460Z,101634.84
2023-05-17T17:02:04.881Z,101646.13
2023-05-17T17:04:34.097Z,101632.03
2023-05-17T17:07:02.438Z,101632.03
2023-05-17T17:09:30.316Z,101630.97
2023-05-17T17:11:58.146Z,101634.75
2023-05-17T17:14:26.087Z,101640.50
2023-05-17T17:16:54.482Z,101643.78
2023-05-17T17:19:22.744Z,101643.16
2023-05-17T17:21:52.061Z,101645.69
2023-05-17T17:24:20.282Z,101650.59
2023-05-17T17:26:50.026Z,101642.63
2023-05-17T17:29:17.861Z,101645.44
2023-05-17T17:31:46.058Z,101647.41
2023-05-17T17:34:13.903Z,101652.91
2023-05-17T17:36:41.703Z,101655.19
2023-05-17T17:39:14.622Z,101652.97
2023-05-17T17:41:42.420Z,101654.69
2023-05-17T17:44:10.441Z,101657.53
2023-05-17T17:46:38.729Z,101657.53
2023-05-17T17:49:06.568Z,101655.56
2023-05-17T17:51:34.409Z,101655.50
2023-05-17T17:54:04.199Z,101653.06
2023-05-17T17:56:33.382Z,101655.97
2023-05-17T17:59:01.213Z,101647.94
2023-05-17T18:01:31.506Z,101659.63
2023-05-17T18:04:00.228Z,101657.19
2023-05-17T18:06:28.031Z,101665.50
2023-05-17T18:08:57.857Z,101673.09
2023-05-17T18:11:26.107Z,101662.03
2023-05-17T18:13:56.614Z,101659.69
2023-05-17T18:16:24.992Z,101660.69
2023-05-17T18:18:52.836Z,101664.94
2023-05-17T18:21:21.535Z,101668.50
2023-05-17T18:23:49.378Z,101672.31
2023-05-17T18:26:17.226Z,101670.94
2023-05-17T18:28:45.078Z,101667.28
2023-05-17T18:31:15.312Z,101667.88
2023-05-17T18:33:43.110Z,101671.66
2023-05-17T18:36:11.037Z,101667.94
2023-05-17T18:38:39.301Z,101662.63
2023-05-17T18:41:07.350Z,101661.66
2023-05-17T18:43:35.212Z,101661.47
2023-05-17T18:46:03.650Z,101665.19
2023-05-17T18:48:35.994Z,101663.28
2023-05-17T18:51:04.306Z,101664.72
2023-05-17T18:53:32.098Z,101664.72
2023-05-17T18:56:01.553Z,101664.13
2023-05-17T18:58:29.673Z,101667.81
2023-05-17T19:00:58.021Z,101664.91
2023-05-17T19:03:26.003Z,101670.06
2023-05-17T19:05:55.766Z,101673.16
2023-05-17T19:08:23.610Z,101679.31
2023-05-17T19:10:51.524Z,101679.13
2023-05-17T19:13:20.037Z,101688.19
2023-05-17T19:15:48.425Z,101692.31
2023-05-17T19:18:16.434Z,101688.00
2023-05-17T19:20:44.863Z,101700.97
2023-05-17T19:23:14.122Z,101696.00
2023-05-17T19:25:41.941Z,101690.88
2023-05-17T19:28:10.696Z,101694.38
2023-05-17T19:30:38.742Z,101697.03
2023-05-17T19:33:06.765Z,101692.13
2023-05-17T19:35:37.706Z,101704.69
2023-05-17T19:38:05.559Z,101695.91
2023-05-17T19:40:35.389Z,101701.88
2023-05-17T19:43:04.118Z,101700.44
2023-05-17T19:45:32.062Z,101700.69
2023-05-17T19:48:00.261Z,101704.34
2023-05-17T19:50:28.874Z,101706.44
2023-05-17T19:52:56.882Z,101704.16
2023-05-17T19:55:26.532Z,101711.59
2023-05-17T19:57:56.165Z,101710.53
2023-05-17T20:00:24.307Z,101705.63
2023-05-17T20:02:52.327Z,101714.66
2023-05-17T20:05:20.949Z,101706.47
2023-05-17T20:07:48.855Z,101713.06
2023-05-17T20:10:16.719Z,101710.38
2023-05-17T20:12:45.149Z,101719.22
2023-05-17T20:15:14.531Z,101721.44
2023-05-17T20:17:42.502Z,101718.78
2023-05-17T20:20:10.845Z,101714.69
2023-05-17T20:22:41.082Z,101707.72
2023-05-17T20:25:08.945Z,101710.56
2023-05-17T20:27:37.124Z,101717.16
2023-05-17T20:30:06.216Z,101722.50
2023-05-17T20:32:35.772Z,101716.34
2023-05-17T20:35:03.680Z,101716.94
2023-05-17T20:37:31.538Z,101724.34
2023-05-17T20:40:00.059Z,101728.47
2023-05-17T20:42:29.045Z,101729.09
2023-05-17T20:44:57.826Z,101734.44
2023-05-17T20:47:26.404Z,101733.63
2023-05-17T20:49:56.414Z,101735.66
2023-05-17T20:52:38.201Z,101740.59
2023-05-17T20:55:10.010Z,101740.59
2023-05-17T20:57:37.904Z,101733.41
2023-05-17T21:00:08.302Z,101742.66
2023-05-17T21:02:36.769Z,101735.06
2023-05-17T21:05:06.335Z,101735.66
2023-05-17T21:07:34.943Z,101739.38
2023-05-17T21:10:03.123Z,101737.72
2023-05-17T21:12:31.166Z,101731.34
2023-05-17T21:15:15.190Z,101735.66
2023-05-17T21:17:44.848Z,101734.03
2023-05-17T21:20:15.593Z,101732.41
2023-05-17T21:22:44.293Z,101737.94
2023-05-17T21:25:12.917Z,101731.13
2023-05-17T21:27:40.973Z,101735.00
2023-05-17T21:30:09.817Z,101737.69
2023-05-17T21:32:38.388Z,101743.44
2023-05-17T21:35:07.289Z,101735.63
2023-05-17T21:37:39.189Z,101737.69
2023-05-17T21:40:08.777Z,101734.19
2023-05-17T21:42:36.913Z,101730.91
2023-05-17T21:45:06.145Z,101729.44
2023-05-17T21:47:35.852Z,101723.31
2023-05-17T21:50:04.165Z,101723.25
2023-05-17T21:52:32.580Z,101725.31
2023-05-17T21:55:01.853Z,101731.69
2023-05-17T21:57:30.170Z,101729.41
2023-05-17T21:59:58.608Z,101724.28
2023-05-17T22:02:26.805Z,101724.47
2023-05-17T22:04:54.990Z,101727.34
2023-05-17T22:07:23.522Z,101726.53
2023-05-17T22:09:51.500Z,101729.41
2023-05-17T22:12:25.850Z,101727.75
2023-05-17T22:14:54.414Z,101735.13
2023-05-17T22:17:29.550Z,101730.19
2023-05-17T22:20:03.020Z,101721.56
2023-05-17T22:22:33.309Z,101725.47
2023-05-17T22:25:01.586Z,101724.84
2023-05-17T22:27:30.927Z,101723.41
2023-05-17T22:29:59.418Z,101723.81
2023-05-17T22:32:27.480Z,101734.22
2023-05-17T22:34:56.243Z,101729.28
2023-05-17T22:37:24.880Z,101726.00
2023-05-17T22:39:52.788Z,101732.75
2023-05-17T22:42:21.045Z,101730.88
2023-05-17T22:44:50.830Z,101731.25
2023-05-17T22:47:22.666Z,101732.84
2023-05-17T22:49:53.058Z,101736.94
2023-05-17T22:52:21.808Z,101725.88
2023-05-17T22:54:49.769Z,101727.88
2023-05-17T22:57:17.853Z,101732.00
2023-05-17T22:59:45.813Z,101727.03
2023-05-17T23:02:15.017Z,101722.09
2023-05-17T23:04:46.311Z,101720.84
2023-05-17T23:07:15.059Z,101726.59
2023-05-17T23:09:42.876Z,101722.47
2023-05-17T23:12:14.618Z,101724.72
2023-05-17T23:14:42.478Z,101721.59
2023-05-17T23:17:10.479Z,101715.84
2023-05-17T23:19:41.323Z,101725.88
2023-05-17T23:22:10.668Z,101718.28
2023-05-17T23:24:38.800Z,101728.50
2023-05-17T23:27:10.495Z,101733.38
2023-05-17T23:29:41.352Z,101732.13
2023-05-17T23:32:09.372Z,101728.19
2023-05-17T23:34:37.809Z,101732.91
2023-05-17T23:37:07.013Z,101727.34
2023-05-17T23:39:35.097Z,101728.72
2023-05-17T23:42:03.221Z,101729.31
2023-05-17T23:44:33.374Z,101727.00
2023-05-17T23:47:01.445Z,101721.28
2023-05-17T23:49:29.810Z,101726.16
2023-05-17T23:51:57.934Z,101721.22
2023-05-17T23:54:28.387Z,101718.13
2023-05-17T23:56:57.569Z,101718.69
2023-05-17T23:59:25.739Z,101714.56
